createdAt,value
2017-12-06T00:00:09.033Z,22.6
2017-12-06T00:00:41.512Z,22.61
2017-12-06T00:01:13.504Z,22.66
2017-12-06T00:01:45.538Z,22.59
2017-12-06T00:02:17.566Z,22.59
2017-12-06T00:02:49.545Z,22.66
2017-12-06T00:03:21.566Z,22.59
2017-12-06T00:03:53.591Z,22.64
2017-12-06T00:04:25.629Z,22.6
2017-12-06T00:04:57.660Z,22.63
2017-12-06T00:05:29.665Z,22.55
2017-12-06T00:06:01.735Z,22.61
2017-12-06T00:06:33.769Z,22.59
2017-12-06T00:07:05.804Z,22.61
2017-12-06T00:07:37.844Z,22.64
2017-12-06T00:08:09.898Z,22.59
2017-12-06T00:08:41.951Z,22.61
2017-12-06T00:09:13.953Z,22.6
2017-12-06T00:09:46.006Z,22.64
2017-12-06T00:10:18.020Z,22.64
2017-12-06T00:10:49.989Z,22.57
2017-12-06T00:11:22.002Z,22.64
2017-12-06T00:11:54.154Z,22.64
2017-12-06T00:12:26.185Z,22.6
2017-12-06T00:12:58.222Z,22.64
2017-12-06T00:13:30.220Z,22.64
2017-12-06T00:14:02.218Z,22.64
2017-12-06T00:14:34.249Z,22.59
2017-12-06T00:15:06.249Z,22.61
2017-12-06T00:15:38.259Z,22.57
2017-12-06T00:16:10.281Z,22.55
2017-12-06T00:16:42.317Z,22.61
2017-12-06T00:17:15.106Z,22.55
2017-12-06T00:17:47.099Z,22.64
2017-12-06T00:18:19.113Z,22.6
2017-12-06T00:18:51.089Z,22.63
2017-12-06T00:19:23.086Z,22.59
2017-12-06T00:19:55.177Z,22.6
2017-12-06T00:20:27.273Z,22.55
2017-12-06T00:20:59.324Z,22.55
2017-12-06T00:21:31.417Z,22.6
2017-12-06T00:22:03.403Z,22.59
2017-12-06T00:22:35.560Z,22.6
2017-12-06T00:23:07.567Z,22.64
2017-12-06T00:23:39.623Z,22.57
2017-12-06T00:24:11.657Z,22.59
2017-12-06T00:24:43.688Z,22.55
2017-12-06T00:25:15.730Z,22.57
2017-12-06T00:25:47.711Z,22.55
2017-12-06T00:26:19.766Z,22.59
2017-12-06T00:26:51.815Z,22.61
2017-12-06T00:27:23.868Z,22.59
2017-12-06T00:27:55.879Z,22.59
2017-12-06T00:28:27.901Z,22.55
2017-12-06T00:28:59.908Z,22.63
2017-12-06T00:29:31.936Z,22.55
2017-12-06T00:30:03.874Z,22.6
2017-12-06T00:30:35.886Z,22.55
2017-12-06T00:31:07.918Z,22.64
2017-12-06T00:31:39.896Z,22.63
2017-12-06T00:32:11.933Z,22.6
2017-12-06T00:32:44.019Z,22.6
2017-12-06T00:33:16.050Z,22.59
2017-12-06T00:33:48.082Z,22.63
2017-12-06T00:34:20.072Z,22.61
2017-12-06T00:34:52.090Z,22.59
2017-12-06T00:35:24.054Z,22.55
2017-12-06T00:35:56.121Z,22.57
2017-12-06T00:36:28.123Z,22.6
2017-12-06T00:37:00.085Z,22.54
2017-12-06T00:37:32.162Z,22.59
2017-12-06T00:38:04.162Z,22.59
2017-12-06T00:38:36.186Z,22.55
2017-12-06T00:39:08.211Z,22.61
2017-12-06T00:39:40.199Z,22.59
2017-12-06T00:40:12.209Z,22.61
2017-12-06T00:40:44.183Z,22.55
2017-12-06T00:41:16.212Z,22.54
2017-12-06T00:41:48.186Z,22.61
2017-12-06T00:42:20.307Z,22.6
2017-12-06T00:42:52.319Z,22.48
2017-12-06T00:43:24.284Z,22.57
2017-12-06T00:43:56.316Z,22.57
2017-12-06T00:44:28.361Z,22.51
2017-12-06T00:45:00.338Z,22.6
2017-12-06T00:45:32.362Z,22.59
2017-12-06T00:46:04.394Z,22.51
2017-12-06T00:46:36.417Z,22.48
2017-12-06T00:47:08.396Z,22.59
2017-12-06T00:47:40.420Z,22.45
2017-12-06T00:48:12.445Z,22.48
2017-12-06T00:48:44.453Z,22.6
2017-12-06T00:49:16.462Z,22.59
2017-12-06T00:49:49.048Z,22.45
2017-12-06T00:50:21.069Z,22.48
2017-12-06T00:50:53.010Z,22.44
2017-12-06T00:51:25.018Z,22.49
2017-12-06T00:51:57.051Z,22.59
2017-12-06T00:52:29.080Z,22.57
2017-12-06T00:53:01.036Z,22.51
2017-12-06T00:53:33.097Z,22.48
2017-12-06T00:54:05.082Z,22.49
2017-12-06T00:54:37.163Z,22.45
2017-12-06T00:55:09.172Z,22.48
2017-12-06T00:55:41.222Z,22.48
2017-12-06T00:56:13.260Z,22.51
2017-12-06T00:56:45.284Z,22.52
2017-12-06T00:57:17.937Z,22.51
2017-12-06T00:57:49.989Z,22.45
2017-12-06T00:58:22.024Z,22.46
2017-12-06T00:58:53.983Z,22.46
2017-12-06T00:59:26.007Z,22.48
2017-12-06T00:59:58.720Z,22.48
2017-12-06T01:00:30.721Z,22.55
2017-12-06T01:01:02.740Z,22.46
2017-12-06T01:01:34.834Z,22.48
2017-12-06T01:02:06.860Z,22.51
2017-12-06T01:02:38.850Z,22.45
2017-12-06T01:03:10.886Z,22.51
2017-12-06T01:03:42.890Z,22.49
2017-12-06T01:04:14.901Z,22.48
2017-12-06T01:04:46.919Z,22.52
2017-12-06T01:05:18.875Z,22.48
2017-12-06T01:05:50.892Z,22.45
2017-12-06T01:06:22.905Z,22.48
2017-12-06T01:06:54.946Z,22.42
2017-12-06T01:07:26.997Z,22.51
2017-12-06T01:07:59.036Z,22.42
2017-12-06T01:08:31.075Z,22.48
2017-12-06T01:09:03.076Z,22.51
2017-12-06T01:09:35.083Z,22.46
2017-12-06T01:10:07.124Z,22.45
2017-12-06T01:10:39.124Z,22.51
2017-12-06T01:11:11.132Z,22.48
2017-12-06T01:11:44.055Z,22.46
2017-12-06T01:12:16.065Z,22.41
2017-12-06T01:12:48.074Z,22.55
2017-12-06T01:13:20.152Z,22.51
2017-12-06T01:13:52.183Z,22.51
2017-12-06T01:14:24.149Z,22.45
2017-12-06T01:14:56.141Z,22.49
2017-12-06T01:15:28.139Z,22.48
2017-12-06T01:16:00.130Z,22.46
2017-12-06T01:16:32.136Z,22.48
2017-12-06T01:17:04.122Z,22.48
2017-12-06T01:17:36.149Z,22.48
2017-12-06T01:18:08.123Z,22.46
2017-12-06T01:18:40.154Z,22.44
2017-12-06T01:19:12.137Z,22.42
2017-12-06T01:19:44.137Z,22.44
2017-12-06T01:20:16.130Z,22.46
2017-12-06T01:20:48.143Z,22.44
2017-12-06T01:21:20.167Z,22.44
2017-12-06T01:21:52.204Z,22.42
2017-12-06T01:22:24.197Z,22.48
2017-12-06T01:22:56.257Z,22.46
2017-12-06T01:23:28.271Z,22.46
2017-12-06T01:24:00.251Z,22.54
2017-12-06T01:24:32.300Z,22.48
2017-12-06T01:25:04.388Z,22.48
2017-12-06T01:25:36.409Z,22.49
2017-12-06T01:26:08.447Z,22.42
2017-12-06T01:26:40.424Z,22.46
2017-12-06T01:27:12.457Z,22.49
2017-12-06T01:27:44.461Z,22.44
2017-12-06T01:28:16.473Z,22.46
2017-12-06T01:28:48.437Z,22.48
2017-12-06T01:29:20.460Z,22.44
2017-12-06T01:29:52.473Z,22.46
2017-12-06T01:30:24.515Z,22.49
2017-12-06T01:30:56.524Z,22.46
2017-12-06T01:31:28.572Z,22.42
2017-12-06T01:32:00.558Z,22.46
2017-12-06T01:32:32.590Z,22.48
2017-12-06T01:33:04.620Z,22.48
2017-12-06T01:33:36.596Z,22.49
2017-12-06T01:34:08.619Z,22.44
2017-12-06T01:34:40.617Z,22.45
2017-12-06T01:35:12.640Z,22.45
2017-12-06T01:35:44.682Z,22.45
2017-12-06T01:36:16.696Z,22.46
2017-12-06T01:36:48.701Z,22.44
2017-12-06T01:37:20.679Z,22.44
2017-12-06T01:37:52.730Z,22.46
2017-12-06T01:38:24.729Z,22.42
2017-12-06T01:38:56.723Z,22.42
2017-12-06T01:39:28.739Z,22.42
2017-12-06T01:40:00.688Z,22.44
2017-12-06T01:40:32.684Z,22.42
2017-12-06T01:41:04.844Z,22.45
2017-12-06T01:41:36.867Z,22.44
2017-12-06T01:42:08.852Z,22.46
2017-12-06T01:42:40.847Z,22.45
2017-12-06T01:43:12.837Z,22.48
2017-12-06T01:43:44.854Z,22.44
2017-12-06T01:44:16.884Z,22.45
2017-12-06T01:44:49.571Z,22.45
2017-12-06T01:45:21.584Z,22.46
2017-12-06T01:45:53.562Z,22.46
2017-12-06T01:46:25.573Z,22.45
2017-12-06T01:46:57.592Z,22.44
2017-12-06T01:47:29.598Z,22.41
2017-12-06T01:48:01.577Z,22.44
2017-12-06T01:48:33.565Z,22.45
2017-12-06T01:49:05.559Z,22.44
2017-12-06T01:49:37.685Z,22.46
2017-12-06T01:50:09.666Z,22.42
2017-12-06T01:50:41.684Z,22.49
2017-12-06T01:51:13.806Z,22.48
2017-12-06T01:51:45.856Z,22.46
2017-12-06T01:52:17.826Z,22.45
2017-12-06T01:52:49.805Z,22.44
2017-12-06T01:53:21.802Z,22.42
2017-12-06T01:53:53.811Z,22.46
2017-12-06T01:54:25.792Z,22.46
2017-12-06T01:54:57.796Z,22.44
2017-12-06T01:55:29.821Z,22.46
2017-12-06T01:56:01.955Z,22.48
2017-12-06T01:56:33.950Z,22.42
2017-12-06T01:57:05.989Z,22.44
2017-12-06T01:57:38.019Z,22.42
2017-12-06T01:58:10.029Z,22.46
2017-12-06T01:58:42.021Z,22.46
2017-12-06T01:59:14.045Z,22.45
2017-12-06T01:59:46.105Z,22.45
2017-12-06T02:00:18.118Z,22.45
2017-12-06T02:00:50.138Z,22.44
2017-12-06T02:01:22.801Z,22.42
2017-12-06T02:01:54.801Z,22.44
2017-12-06T02:02:26.812Z,22.46
2017-12-06T02:02:58.800Z,22.46
2017-12-06T02:03:30.828Z,22.46
2017-12-06T02:04:02.843Z,22.41
2017-12-06T02:04:34.951Z,22.42
2017-12-06T02:05:06.959Z,22.49
2017-12-06T02:05:38.939Z,22.33
2017-12-06T02:06:10.935Z,22.42
2017-12-06T02:06:42.954Z,22.42
2017-12-06T02:07:14.963Z,22.45
2017-12-06T02:07:47.094Z,22.46
2017-12-06T02:08:19.107Z,22.44
2017-12-06T02:08:51.112Z,22.42
2017-12-06T02:09:23.099Z,22.45
2017-12-06T02:09:55.110Z,22.44
2017-12-06T02:10:27.109Z,22.44
2017-12-06T02:10:59.117Z,22.41
2017-12-06T02:11:31.121Z,22.44
2017-12-06T02:12:03.152Z,22.45
2017-12-06T02:12:35.228Z,22.39
2017-12-06T02:13:07.264Z,22.46
2017-12-06T02:13:39.282Z,22.46
2017-12-06T02:14:11.280Z,22.42
2017-12-06T02:14:43.275Z,22.42
2017-12-06T02:15:15.308Z,22.39
2017-12-06T02:15:47.294Z,22.44
2017-12-06T02:16:19.368Z,22.46
2017-12-06T02:16:51.414Z,22.41
2017-12-06T02:17:23.430Z,22.46
2017-12-06T02:17:55.396Z,22.45
2017-12-06T02:18:27.510Z,22.45
2017-12-06T02:18:59.542Z,22.44
2017-12-06T02:19:31.517Z,22.46
2017-12-06T02:20:03.556Z,22.49
2017-12-06T02:20:35.658Z,22.46
2017-12-06T02:21:07.661Z,22.45
2017-12-06T02:21:39.690Z,22.44
2017-12-06T02:22:11.765Z,22.45
2017-12-06T02:22:43.768Z,22.45
2017-12-06T02:23:15.827Z,22.45
2017-12-06T02:23:47.852Z,22.45
2017-12-06T02:24:19.966Z,22.44
2017-12-06T02:24:51.959Z,22.41
2017-12-06T02:25:23.945Z,22.45
2017-12-06T02:25:55.972Z,22.46
2017-12-06T02:26:27.922Z,22.45
2017-12-06T02:26:59.944Z,22.46
2017-12-06T02:27:31.983Z,22.46
2017-12-06T02:28:03.997Z,22.46
2017-12-06T02:28:36.027Z,22.48
2017-12-06T02:29:08.069Z,22.42
2017-12-06T02:29:40.193Z,22.48
2017-12-06T02:30:12.227Z,22.44
2017-12-06T02:30:44.249Z,22.46
2017-12-06T02:31:16.309Z,22.44
2017-12-06T02:31:48.281Z,22.45
2017-12-06T02:32:20.294Z,22.48
2017-12-06T02:32:53.188Z,22.46
2017-12-06T02:33:25.332Z,22.49
2017-12-06T02:33:57.422Z,22.41
2017-12-06T02:34:29.453Z,22.44
2017-12-06T02:35:01.503Z,22.46
2017-12-06T02:35:33.519Z,22.48
2017-12-06T02:36:05.661Z,22.46
2017-12-06T02:36:37.682Z,22.44
2017-12-06T02:37:09.697Z,22.44
2017-12-06T02:37:41.735Z,22.52
2017-12-06T02:38:13.764Z,22.48
2017-12-06T02:38:45.776Z,22.48
2017-12-06T02:39:17.787Z,22.42
2017-12-06T02:39:49.815Z,22.49
2017-12-06T02:40:21.849Z,22.51
2017-12-06T02:40:53.859Z,22.48
2017-12-06T02:41:26.023Z,22.48
2017-12-06T02:41:58.050Z,22.45
2017-12-06T02:42:30.043Z,22.48
2017-12-06T02:43:02.051Z,22.48
2017-12-06T02:43:34.055Z,22.45
2017-12-06T02:44:06.069Z,22.51
2017-12-06T02:44:38.180Z,22.52
2017-12-06T02:45:10.262Z,22.52
2017-12-06T02:45:42.292Z,22.46
2017-12-06T02:46:14.298Z,22.48
2017-12-06T02:46:46.357Z,22.51
2017-12-06T02:47:18.307Z,22.48
2017-12-06T02:47:50.310Z,22.44
2017-12-06T02:48:22.370Z,22.46
2017-12-06T02:48:54.373Z,22.54
2017-12-06T02:49:26.379Z,22.46
2017-12-06T02:49:58.357Z,22.51
2017-12-06T02:50:30.380Z,22.44
2017-12-06T02:51:02.430Z,22.49
2017-12-06T02:51:34.416Z,22.51
2017-12-06T02:52:06.441Z,22.52
2017-12-06T02:52:38.487Z,22.46
2017-12-06T02:53:10.584Z,22.51
2017-12-06T02:53:42.599Z,22.42
2017-12-06T02:54:14.625Z,22.51
2017-12-06T02:54:47.113Z,22.48
2017-12-06T02:55:19.148Z,22.51
2017-12-06T02:55:52.005Z,22.44
2017-12-06T02:56:24.062Z,22.46
2017-12-06T02:56:56.082Z,22.48
2017-12-06T02:57:28.083Z,22.46
2017-12-06T02:58:00.151Z,22.46
2017-12-06T02:58:32.139Z,22.49
2017-12-06T02:59:04.168Z,22.46
2017-12-06T02:59:36.158Z,22.48
2017-12-06T03:00:08.226Z,22.54
2017-12-06T03:00:40.247Z,22.49
2017-12-06T03:01:12.428Z,22.48
2017-12-06T03:01:44.454Z,22.51
2017-12-06T03:02:16.487Z,22.46
2017-12-06T03:02:48.487Z,22.44
2017-12-06T03:03:20.506Z,22.45
2017-12-06T03:03:52.552Z,22.44
2017-12-06T03:04:24.571Z,22.46
2017-12-06T03:04:56.701Z,22.42
2017-12-06T03:05:28.748Z,22.49
2017-12-06T03:06:00.867Z,22.45
2017-12-06T03:06:32.906Z,22.42
2017-12-06T03:07:05.591Z,22.44
2017-12-06T03:07:37.633Z,22.45
2017-12-06T03:08:09.631Z,22.45
2017-12-06T03:08:41.632Z,22.45
2017-12-06T03:09:13.591Z,22.46
2017-12-06T03:09:45.668Z,22.42
2017-12-06T03:10:17.736Z,22.42
2017-12-06T03:10:49.733Z,22.42
2017-12-06T03:11:21.764Z,22.44
2017-12-06T03:11:53.835Z,22.42
2017-12-06T03:12:25.865Z,22.45
2017-12-06T03:12:57.881Z,22.45
2017-12-06T03:13:29.917Z,22.44
2017-12-06T03:14:01.911Z,22.46
2017-12-06T03:14:34.796Z,22.42
2017-12-06T03:15:06.855Z,22.49
2017-12-06T03:15:38.868Z,22.46
2017-12-06T03:16:10.896Z,22.42
2017-12-06T03:16:42.945Z,22.52
2017-12-06T03:17:14.924Z,22.42
2017-12-06T03:17:46.954Z,22.44
2017-12-06T03:18:18.984Z,22.45
2017-12-06T03:18:51.001Z,22.46
2017-12-06T03:19:23.015Z,22.45
2017-12-06T03:19:55.913Z,22.45
2017-12-06T03:20:27.940Z,22.44
2017-12-06T03:20:59.924Z,22.41
2017-12-06T03:21:31.982Z,22.44
2017-12-06T03:22:03.996Z,22.45
2017-12-06T03:22:36.002Z,22.38
2017-12-06T03:23:08.112Z,22.46
2017-12-06T03:23:40.140Z,22.44
2017-12-06T03:24:12.151Z,22.39
2017-12-06T03:24:44.190Z,22.46
2017-12-06T03:25:16.152Z,22.44
2017-12-06T03:25:48.196Z,22.45
2017-12-06T03:26:20.211Z,22.46
2017-12-06T03:26:52.245Z,22.39
2017-12-06T03:27:24.234Z,22.39
2017-12-06T03:27:56.300Z,22.46
2017-12-06T03:28:28.309Z,22.44
2017-12-06T03:29:00.322Z,22.45
2017-12-06T03:29:32.348Z,22.45
2017-12-06T03:30:04.373Z,22.41
2017-12-06T03:30:36.415Z,22.44
2017-12-06T03:31:08.456Z,22.49
2017-12-06T03:31:40.481Z,22.45
2017-12-06T03:32:12.519Z,22.42
2017-12-06T03:32:44.513Z,22.45
2017-12-06T03:33:16.571Z,22.39
2017-12-06T03:33:48.583Z,22.45
2017-12-06T03:34:20.603Z,22.38
2017-12-06T03:34:52.604Z,22.41
2017-12-06T03:35:24.614Z,22.34
2017-12-06T03:35:56.656Z,22.39
2017-12-06T03:36:28.695Z,22.39
2017-12-06T03:37:00.683Z,22.41
2017-12-06T03:37:32.710Z,22.38
2017-12-06T03:38:04.690Z,22.42
2017-12-06T03:38:36.700Z,22.42
2017-12-06T03:39:08.695Z,22.42
2017-12-06T03:39:40.693Z,22.41
2017-12-06T03:40:12.760Z,22.38
2017-12-06T03:40:44.804Z,22.38
2017-12-06T03:41:16.822Z,22.44
2017-12-06T03:41:48.816Z,22.44
2017-12-06T03:42:20.782Z,22.41
2017-12-06T03:42:52.843Z,22.38
2017-12-06T03:43:25.531Z,22.39
2017-12-06T03:43:57.565Z,22.39
2017-12-06T03:44:29.564Z,22.42
2017-12-06T03:45:01.602Z,22.42
2017-12-06T03:45:33.616Z,22.41
2017-12-06T03:46:05.684Z,22.39
2017-12-06T03:46:37.690Z,22.39
2017-12-06T03:47:09.754Z,22.41
2017-12-06T03:47:41.736Z,22.44
2017-12-06T03:48:13.760Z,22.41
2017-12-06T03:48:45.776Z,22.46
2017-12-06T03:49:17.921Z,22.44
2017-12-06T03:49:50.007Z,22.42
2017-12-06T03:50:22.012Z,22.38
2017-12-06T03:50:54.014Z,22.41
2017-12-06T03:51:26.070Z,22.41
2017-12-06T03:51:58.061Z,22.38
2017-12-06T03:52:30.061Z,22.44
2017-12-06T03:53:02.069Z,22.42
2017-12-06T03:53:34.095Z,22.48
2017-12-06T03:54:06.094Z,22.45
2017-12-06T03:54:38.128Z,22.46
2017-12-06T03:55:10.164Z,22.39
2017-12-06T03:55:42.198Z,22.46
2017-12-06T03:56:14.338Z,22.42
2017-12-06T03:56:46.353Z,22.36
2017-12-06T03:57:18.352Z,22.44
2017-12-06T03:57:50.356Z,22.45
2017-12-06T03:58:22.375Z,22.44
2017-12-06T03:58:54.353Z,22.39
2017-12-06T03:59:27.147Z,22.45
2017-12-06T03:59:59.961Z,22.42
2017-12-06T04:00:31.936Z,22.39
2017-12-06T04:01:03.930Z,22.39
2017-12-06T04:01:35.940Z,22.45
2017-12-06T04:02:07.935Z,22.51
2017-12-06T04:02:39.954Z,22.42
2017-12-06T04:03:11.977Z,22.46
2017-12-06T04:03:43.942Z,22.44
2017-12-06T04:04:15.976Z,22.41
2017-12-06T04:04:48.006Z,22.44
2017-12-06T04:05:20.031Z,22.44
2017-12-06T04:05:52.165Z,22.44
2017-12-06T04:06:24.148Z,22.38
2017-12-06T04:06:56.142Z,22.41
2017-12-06T04:07:28.189Z,22.42
2017-12-06T04:08:00.234Z,22.45
2017-12-06T04:08:32.225Z,22.49
2017-12-06T04:09:04.239Z,22.36
2017-12-06T04:09:36.227Z,22.42
2017-12-06T04:10:08.216Z,22.36
2017-12-06T04:10:40.247Z,22.42
2017-12-06T04:11:12.235Z,22.44
2017-12-06T04:11:44.297Z,22.44
2017-12-06T04:12:16.373Z,22.45
2017-12-06T04:12:48.380Z,22.42
2017-12-06T04:13:20.388Z,22.45
2017-12-06T04:13:52.408Z,22.41
2017-12-06T04:14:24.450Z,22.38
2017-12-06T04:14:56.458Z,22.31
2017-12-06T04:15:28.460Z,22.44
2017-12-06T04:16:00.465Z,22.39
2017-12-06T04:16:32.478Z,22.38
2017-12-06T04:17:04.473Z,22.36
2017-12-06T04:17:36.456Z,22.36
2017-12-06T04:18:08.499Z,22.39
2017-12-06T04:18:40.522Z,22.38
2017-12-06T04:19:13.044Z,22.36
2017-12-06T04:19:45.163Z,22.33
2017-12-06T04:20:17.184Z,22.36
2017-12-06T04:20:49.195Z,22.45
2017-12-06T04:21:21.223Z,22.41
2017-12-06T04:21:53.226Z,22.34
2017-12-06T04:22:25.200Z,22.41
2017-12-06T04:22:57.231Z,22.3
2017-12-06T04:23:29.224Z,22.42
2017-12-06T04:24:01.218Z,22.41
2017-12-06T04:24:33.657Z,22.38
2017-12-06T04:25:05.687Z,22.33
2017-12-06T04:25:38.346Z,22.36
2017-12-06T04:26:10.362Z,22.34
2017-12-06T04:26:42.404Z,22.29
2017-12-06T04:27:14.393Z,22.39
2017-12-06T04:27:46.423Z,22.41
2017-12-06T04:28:18.421Z,22.36
2017-12-06T04:28:50.443Z,22.36
2017-12-06T04:29:22.450Z,22.33
2017-12-06T04:29:54.495Z,22.36
2017-12-06T04:30:26.499Z,22.44
2017-12-06T04:30:58.522Z,22.41
2017-12-06T04:31:30.536Z,22.34
2017-12-06T04:32:02.537Z,22.42
2017-12-06T04:32:34.559Z,22.33
2017-12-06T04:33:06.574Z,22.41
2017-12-06T04:33:38.560Z,22.39
2017-12-06T04:34:10.667Z,22.45
2017-12-06T04:34:42.699Z,22.38
2017-12-06T04:35:14.700Z,22.34
2017-12-06T04:35:46.752Z,22.41
2017-12-06T04:36:18.777Z,22.41
2017-12-06T04:36:50.797Z,22.36
2017-12-06T04:37:22.817Z,22.31
2017-12-06T04:37:54.807Z,22.39
2017-12-06T04:38:26.817Z,22.42
2017-12-06T04:38:58.836Z,22.33
2017-12-06T04:39:30.856Z,22.42
2017-12-06T04:40:02.873Z,22.42
2017-12-06T04:40:34.966Z,22.31
2017-12-06T04:41:06.915Z,22.41
2017-12-06T04:41:38.949Z,22.36
2017-12-06T04:42:10.985Z,22.36
2017-12-06T04:42:42.987Z,22.41
2017-12-06T04:43:15.114Z,22.36
2017-12-06T04:43:47.126Z,22.38
2017-12-06T04:44:19.180Z,22.41
2017-12-06T04:44:51.213Z,22.34
2017-12-06T04:45:23.249Z,22.34
2017-12-06T04:45:55.260Z,22.36
2017-12-06T04:46:27.302Z,22.34
2017-12-06T04:46:59.345Z,22.39
2017-12-06T04:47:31.414Z,22.36
2017-12-06T04:48:03.423Z,22.34
2017-12-06T04:48:35.407Z,22.39
2017-12-06T04:49:07.428Z,22.26
2017-12-06T04:49:39.449Z,22.39
2017-12-06T04:50:11.580Z,22.36
2017-12-06T04:50:43.614Z,22.39
2017-12-06T04:51:15.645Z,22.42
2017-12-06T04:51:47.682Z,22.33
2017-12-06T04:52:19.695Z,22.34
2017-12-06T04:52:51.690Z,22.38
2017-12-06T04:53:23.731Z,22.36
2017-12-06T04:53:55.771Z,22.38
2017-12-06T04:54:27.864Z,22.38
2017-12-06T04:54:59.828Z,22.38
2017-12-06T04:55:31.883Z,22.34
2017-12-06T04:56:03.899Z,22.31
2017-12-06T04:56:35.983Z,22.34
2017-12-06T04:57:07.999Z,22.36
2017-12-06T04:57:40.083Z,22.33
2017-12-06T04:58:12.230Z,22.36
2017-12-06T04:58:44.227Z,22.36
2017-12-06T04:59:16.258Z,22.39
2017-12-06T04:59:48.261Z,22.38
2017-12-06T05:00:20.322Z,22.36
2017-12-06T05:00:52.309Z,22.34
2017-12-06T05:01:24.309Z,22.38
2017-12-06T05:01:56.274Z,22.33
2017-12-06T05:02:28.308Z,22.38
2017-12-06T05:03:00.336Z,22.39
2017-12-06T05:03:32.375Z,22.34
2017-12-06T05:04:04.420Z,22.36
2017-12-06T05:04:36.406Z,22.33
2017-12-06T05:05:08.385Z,22.3
2017-12-06T05:05:40.392Z,22.3
2017-12-06T05:06:12.415Z,22.38
2017-12-06T05:06:44.448Z,22.34
2017-12-06T05:07:16.499Z,22.33
2017-12-06T05:07:48.570Z,22.34
2017-12-06T05:08:20.551Z,22.34
2017-12-06T05:08:52.553Z,22.33
2017-12-06T05:09:24.590Z,22.33
2017-12-06T05:09:56.551Z,22.36
2017-12-06T05:10:28.554Z,22.3
2017-12-06T05:11:00.589Z,22.36
2017-12-06T05:11:32.600Z,22.34
2017-12-06T05:12:04.635Z,22.33
2017-12-06T05:12:36.729Z,22.36
2017-12-06T05:13:08.748Z,22.33
2017-12-06T05:13:40.807Z,22.33
2017-12-06T05:14:12.849Z,22.34
2017-12-06T05:14:44.891Z,22.31
2017-12-06T05:15:16.910Z,22.36
2017-12-06T05:15:48.922Z,22.31
2017-12-06T05:16:20.891Z,22.31
2017-12-06T05:16:52.881Z,22.34
2017-12-06T05:17:24.923Z,22.31
2017-12-06T05:17:56.940Z,22.34
2017-12-06T05:18:28.947Z,22.3
2017-12-06T05:19:00.912Z,22.36
2017-12-06T05:19:32.964Z,22.36
2017-12-06T05:20:04.986Z,22.3
2017-12-06T05:20:37.002Z,22.33
2017-12-06T05:21:09.093Z,22.36
2017-12-06T05:21:41.172Z,22.34
2017-12-06T05:22:13.237Z,22.34
2017-12-06T05:22:45.280Z,22.31
2017-12-06T05:23:17.320Z,22.31
2017-12-06T05:23:49.314Z,22.31
2017-12-06T05:24:21.325Z,22.29
2017-12-06T05:24:53.322Z,22.31
2017-12-06T05:25:26.005Z,22.31
2017-12-06T05:25:58.037Z,22.33
2017-12-06T05:26:30.022Z,22.23
2017-12-06T05:27:02.025Z,22.31
2017-12-06T05:27:34.042Z,22.27
2017-12-06T05:28:06.875Z,22.3
2017-12-06T05:28:38.975Z,22.33
2017-12-06T05:29:10.955Z,22.26
2017-12-06T05:29:42.967Z,22.38
2017-12-06T05:30:14.966Z,22.31
2017-12-06T05:30:46.988Z,22.23
2017-12-06T05:31:19.039Z,22.3
2017-12-06T05:31:51.071Z,22.27
2017-12-06T05:32:23.060Z,22.3
2017-12-06T05:32:55.054Z,22.26
2017-12-06T05:33:27.065Z,22.29
2017-12-06T05:33:59.042Z,22.31
2017-12-06T05:34:31.079Z,22.3
2017-12-06T05:35:03.067Z,22.27
2017-12-06T05:35:35.059Z,22.36
2017-12-06T05:36:07.078Z,22.36
2017-12-06T05:36:39.134Z,22.22
2017-12-06T05:37:11.179Z,22.27
2017-12-06T05:37:43.208Z,22.27
2017-12-06T05:38:15.223Z,22.36
2017-12-06T05:38:47.199Z,22.27
2017-12-06T05:39:19.158Z,22.31
2017-12-06T05:39:51.143Z,22.36
2017-12-06T05:40:23.166Z,22.31
2017-12-06T05:40:55.188Z,22.26
2017-12-06T05:41:27.218Z,22.3
2017-12-06T05:41:59.237Z,22.24
2017-12-06T05:42:31.267Z,22.3
2017-12-06T05:43:03.259Z,22.3
2017-12-06T05:43:35.294Z,22.26
2017-12-06T05:44:07.329Z,22.26
2017-12-06T05:44:39.328Z,22.27
2017-12-06T05:45:11.483Z,22.27
2017-12-06T05:45:43.986Z,22.31
2017-12-06T05:46:15.994Z,22.31
2017-12-06T05:46:47.989Z,22.27
2017-12-06T05:47:19.971Z,22.26
2017-12-06T05:47:52.002Z,22.26
2017-12-06T05:48:24.032Z,22.31
2017-12-06T05:48:56.095Z,22.3
2017-12-06T05:49:28.137Z,22.22
2017-12-06T05:50:00.181Z,22.24
2017-12-06T05:50:32.204Z,22.3
2017-12-06T05:51:04.247Z,22.22
2017-12-06T05:51:36.276Z,22.23
2017-12-06T05:52:08.316Z,22.36
2017-12-06T05:52:41.183Z,22.27
2017-12-06T05:53:13.238Z,22.3
2017-12-06T05:53:45.294Z,22.23
2017-12-06T05:54:17.281Z,22.26
2017-12-06T05:54:49.341Z,22.34
2017-12-06T05:55:21.353Z,22.34
2017-12-06T05:55:53.321Z,22.34
2017-12-06T05:56:26.094Z,22.36
2017-12-06T05:56:58.064Z,22.29
2017-12-06T05:57:30.130Z,22.34
2017-12-06T05:58:02.127Z,22.26
2017-12-06T05:58:34.132Z,22.3
2017-12-06T05:59:06.117Z,22.34
2017-12-06T05:59:38.128Z,22.33
2017-12-06T06:00:10.113Z,22.29
2017-12-06T06:00:42.098Z,22.31
2017-12-06T06:01:14.094Z,22.27
2017-12-06T06:01:46.124Z,22.38
2017-12-06T06:02:18.849Z,22.31
2017-12-06T06:02:51.019Z,22.3
2017-12-06T06:03:23.006Z,22.27
2017-12-06T06:03:54.995Z,22.34
2017-12-06T06:04:27.013Z,22.38
2017-12-06T06:04:59.031Z,22.38
2017-12-06T06:05:31.054Z,22.34
2017-12-06T06:06:03.694Z,22.26
2017-12-06T06:06:35.714Z,22.33
2017-12-06T06:07:07.755Z,22.34
2017-12-06T06:07:39.770Z,22.33
2017-12-06T06:08:11.786Z,22.34
2017-12-06T06:08:43.789Z,22.38
2017-12-06T06:09:15.836Z,22.31
2017-12-06T06:09:47.880Z,22.31
2017-12-06T06:10:19.929Z,22.3
2017-12-06T06:10:51.979Z,22.34
2017-12-06T06:11:24.005Z,22.34
2017-12-06T06:11:56.010Z,22.33
2017-12-06T06:12:28.033Z,22.31
2017-12-06T06:12:59.996Z,22.34
2017-12-06T06:13:31.966Z,22.36
2017-12-06T06:14:04.008Z,22.3
2017-12-06T06:14:36.132Z,22.31
2017-12-06T06:15:08.163Z,22.3
2017-12-06T06:15:40.201Z,22.33
2017-12-06T06:16:12.211Z,22.31
2017-12-06T06:16:44.330Z,22.33
2017-12-06T06:17:16.290Z,22.34
2017-12-06T06:17:48.337Z,22.31
2017-12-06T06:18:20.360Z,22.3
2017-12-06T06:18:52.386Z,22.33
2017-12-06T06:19:24.404Z,22.33
2017-12-06T06:19:56.385Z,22.34
2017-12-06T06:20:28.411Z,22.33
2017-12-06T06:21:00.430Z,22.34
2017-12-06T06:21:32.380Z,22.34
2017-12-06T06:22:04.415Z,22.34
2017-12-06T06:22:36.461Z,22.33
2017-12-06T06:23:08.526Z,22.33
2017-12-06T06:23:40.643Z,22.3
2017-12-06T06:24:12.702Z,22.3
2017-12-06T06:24:44.758Z,22.36
2017-12-06T06:25:16.771Z,22.34
2017-12-06T06:25:48.786Z,22.33
2017-12-06T06:26:20.823Z,22.36
2017-12-06T06:26:52.851Z,22.34
2017-12-06T06:27:24.835Z,22.33
2017-12-06T06:27:56.922Z,22.33
2017-12-06T06:28:29.059Z,22.34
2017-12-06T06:29:01.048Z,22.38
2017-12-06T06:29:33.079Z,22.31
2017-12-06T06:30:05.024Z,22.36
2017-12-06T06:30:37.100Z,22.31
2017-12-06T06:31:09.297Z,22.34
2017-12-06T06:31:41.309Z,22.31
2017-12-06T06:32:13.343Z,22.31
2017-12-06T06:32:45.363Z,22.33
2017-12-06T06:33:17.404Z,22.34
2017-12-06T06:33:49.516Z,22.31
2017-12-06T06:34:21.525Z,22.36
2017-12-06T06:34:53.546Z,22.31
2017-12-06T06:35:25.546Z,22.3
2017-12-06T06:35:57.665Z,22.33
2017-12-06T06:36:29.697Z,22.33
2017-12-06T07:14:22.119Z,22.31
2017-12-06T07:14:54.138Z,22.31
2017-12-06T07:15:26.185Z,22.34
2017-12-06T07:15:58.336Z,22.3
2017-12-06T07:16:30.344Z,22.33
2017-12-06T07:17:02.294Z,22.31
2017-12-06T07:17:34.317Z,22.34
2017-12-06T07:18:06.297Z,22.36
2017-12-06T07:18:38.360Z,22.34
2017-12-06T07:19:11.352Z,22.33
2017-12-06T07:19:43.420Z,22.34
2017-12-06T07:20:15.404Z,22.31
2017-12-06T07:20:47.422Z,22.29
2017-12-06T07:21:19.423Z,22.34
2017-12-06T07:21:51.666Z,22.34
2017-12-06T07:22:24.530Z,22.33
2017-12-06T07:22:56.522Z,22.34
2017-12-06T07:23:28.533Z,22.31
2017-12-06T07:24:00.526Z,22.33
2017-12-06T07:24:32.549Z,22.34
2017-12-06T07:25:04.554Z,22.31
2017-12-06T07:25:36.591Z,22.31
2017-12-06T07:26:08.583Z,22.34
2017-12-06T07:26:40.714Z,22.31
2017-12-06T07:27:12.811Z,22.33
2017-12-06T07:27:44.849Z,22.34
2017-12-06T07:28:16.829Z,22.3
2017-12-06T07:28:48.849Z,22.33
2017-12-06T07:29:20.838Z,22.34
2017-12-06T07:29:52.823Z,22.33
2017-12-06T07:30:24.824Z,22.33
2017-12-06T07:30:56.846Z,22.36